sensor_id;sensor_type;location;lat;lon;timestamp;temperature;humidity
25949;DHT22;13961;51.178;4.448;2022-10-31T00:01:18;15.50;99.90
25949;DHT22;13961;51.178;4.448;2022-10-31T00:03:44;15.50;99.90
25949;DHT22;13961;51.178;4.448;2022-10-31T00:06:11;15.40;99.90
25949;DHT22;13961;51.178;4.448;2022-10-31T00:08:36;15.50;99.90
25949;DHT22;13961;51.178;4.448;2022-10-31T00:11:02;15.50;99.90
25949;DHT22;13961;51.178;4.448;2022-10-31T00:13:28;15.50;99.90
25949;DHT22;13961;51.178;4.448;2022-10-31T00:15:54;15.50;99.90
25949;DHT22;13961;51.178;4.448;2022-10-31T00:18:19;15.40;99.90
25949;DHT22;13961;51.178;4.448;2022-10-31T00:20:45;15.20;99.90
25949;DHT22;13961;51.178;4.448;2022-10-31T00:23:11;15.00;99.90
25949;DHT22;13961;51.178;4.448;2022-10-31T00:25:38;15.00;99.90
25949;DHT22;13961;51.178;4.448;2022-10-31T00:28:06;15.00;99.90
25949;DHT22;13961;51.178;4.448;2022-10-31T00:30:32;15.00;99.90
25949;DHT22;13961;51.178;4.448;2022-10-31T00:32:58;14.80;99.90
25949;DHT22;13961;51.178;4.448;2022-10-31T00:35:24;14.80;99.90
25949;DHT22;13961;51.178;4.448;2022-10-31T00:37:49;14.70;99.90
25949;DHT22;13961;51.178;4.448;2022-10-31T00:40:15;14.70;99.90
25949;DHT22;13961;51.178;4.448;2022-10-31T00:42:43;14.70;99.90
25949;DHT22;13961;51.178;4.448;2022-10-31T00:45:09;14.70;99.90
25949;DHT22;13961;51.178;4.448;2022-10-31T00:47:35;14.70;99.90
25949;DHT22;13961;51.178;4.448;2022-10-31T00:50:01;14.80;99.90
25949;DHT22;13961;51.178;4.448;2022-10-31T00:52:28;14.70;99.90
25949;DHT22;13961;51.178;4.448;2022-10-31T00:54:54;14.80;99.90
25949;DHT22;13961;51.178;4.448;2022-10-31T00:57:20;14.70;99.90
25949;DHT22;13961;51.178;4.448;2022-10-31T00:59:46;14.80;99.90
25949;DHT22;13961;51.178;4.448;2022-10-31T01:02:12;14.60;99.90
25949;DHT22;13961;51.178;4.448;2022-10-31T01:04:37;14.60;99.90
25949;DHT22;13961;51.178;4.448;2022-10-31T01:07:03;14.50;99.90
25949;DHT22;13961;51.178;4.448;2022-10-31T01:09:28;14.50;99.90
25949;DHT22;13961;51.178;4.448;2022-10-31T01:11:54;14.70;99.90
25949;DHT22;13961;51.178;4.448;2022-10-31T01:14:20;14.50;99.90
25949;DHT22;13961;51.178;4.448;2022-10-31T01:16:45;14.50;99.90
25949;DHT22;13961;51.178;4.448;2022-10-31T01:19:13;14.40;99.90
25949;DHT22;13961;51.178;4.448;2022-10-31T01:21:38;14.40;99.90
25949;DHT22;13961;51.178;4.448;2022-10-31T01:24:04;14.40;99.90
25949;DHT22;13961;51.178;4.448;2022-10-31T01:26:32;14.40;99.90
25949;DHT22;13961;51.178;4.448;2022-10-31T01:29:00;14.40;99.90
25949;DHT22;13961;51.178;4.448;2022-10-31T01:31:29;14.40;99.90
25949;DHT22;13961;51.178;4.448;2022-10-31T01:33:56;14.30;99.90
25949;DHT22;13961;51.178;4.448;2022-10-31T01:36:24;14.20;99.90
25949;DHT22;13961;51.178;4.448;2022-10-31T01:38:52;14.20;99.90
25949;DHT22;13961;51.178;4.448;2022-10-31T01:41:21;14.10;99.90
25949;DHT22;13961;51.178;4.448;2022-10-31T01:43:55;14.10;99.90
25949;DHT22;13961;51.178;4.448;2022-10-31T01:46:30;14.10;99.90
25949;DHT22;13961;51.178;4.448;2022-10-31T01:49:01;14.00;99.90
25949;DHT22;13961;51.178;4.448;2022-10-31T01:51:30;14.00;99.90
25949;DHT22;13961;51.178;4.448;2022-10-31T01:54:06;14.10;99.90
25949;DHT22;13961;51.178;4.448;2022-10-31T01:56:35;14.00;99.90
25949;DHT22;13961;51.178;4.448;2022-10-31T01:59:07;14.00;99.90
25949;DHT22;13961;51.178;4.448;2022-10-31T02:01:33;14.10;99.90
25949;DHT22;13961;51.178;4.448;2022-10-31T02:04:00;13.90;99.90
25949;DHT22;13961;51.178;4.448;2022-10-31T02:06:41;13.90;99.90
25949;DHT22;13961;51.178;4.448;2022-10-31T02:09:11;13.80;99.90
25949;DHT22;13961;51.178;4.448;2022-10-31T02:11:38;13.90;99.90
25949;DHT22;13961;51.178;4.448;2022-10-31T02:14:04;13.80;99.90
25949;DHT22;13961;51.178;4.448;2022-10-31T02:16:30;13.80;99.90
25949;DHT22;13961;51.178;4.448;2022-10-31T02:18:56;13.70;99.90
25949;DHT22;13961;51.178;4.448;2022-10-31T02:22:11;13.70;99.90
25949;DHT22;13961;51.178;4.448;2022-10-31T02:24:33;13.70;99.90
25949;DHT22;13961;51.178;4.448;2022-10-31T02:27:57;13.70;99.90
25949;DHT22;13961;51.178;4.448;2022-10-31T02:30:50;13.70;99.90
25949;DHT22;13961;51.178;4.448;2022-10-31T02:33:35;13.70;99.90
25949;DHT22;13961;51.178;4.448;2022-10-31T02:36:15;13.70;99.90
25949;DHT22;13961;51.178;4.448;2022-10-31T02:39:06;13.60;99.90
25949;DHT22;13961;51.178;4.448;2022-10-31T02:41:58;13.60;99.90
25949;DHT22;13961;51.178;4.448;2022-10-31T02:44:38;13.50;99.90
25949;DHT22;13961;51.178;4.448;2022-10-31T02:47:22;13.60;99.90
25949;DHT22;13961;51.178;4.448;2022-10-31T02:50:06;13.50;99.90
25949;DHT22;13961;51.178;4.448;2022-10-31T02:52:35;13.50;99.90
25949;DHT22;13961;51.178;4.448;2022-10-31T02:57:49;13.50;99.90
25949;DHT22;13961;51.178;4.448;2022-10-31T03:00:16;13.40;99.90
25949;DHT22;13961;51.178;4.448;2022-10-31T03:06:07;13.40;99.90
25949;DHT22;13961;51.178;4.448;2022-10-31T03:08:35;13.30;99.90
25949;DHT22;13961;51.178;4.448;2022-10-31T03:11:07;13.30;99.90
25949;DHT22;13961;51.178;4.448;2022-10-31T03:21:39;13.30;99.90
25949;DHT22;13961;51.178;4.448;2022-10-31T03:24:07;13.30;99.90
25949;DHT22;13961;51.178;4.448;2022-10-31T03:26:37;13.30;99.90
25949;DHT22;13961;51.178;4.448;2022-10-31T03:29:06;13.30;99.90
25949;DHT22;13961;51.178;4.448;2022-10-31T03:31:37;13.40;99.90
25949;DHT22;13961;51.178;4.448;2022-10-31T03:34:05;13.30;99.90
25949;DHT22;13961;51.178;4.448;2022-10-31T03:36:32;13.30;99.90
25949;DHT22;13961;51.178;4.448;2022-10-31T03:39:02;13.30;99.90
25949;DHT22;13961;51.178;4.448;2022-10-31T03:41:32;13.40;99.90
25949;DHT22;13961;51.178;4.448;2022-10-31T03:44:13;13.30;99.90
25949;DHT22;13961;51.178;4.448;2022-10-31T03:46:40;13.30;99.90
25949;DHT22;13961;51.178;4.448;2022-10-31T03:49:07;13.20;99.90
25949;DHT22;13961;51.178;4.448;2022-10-31T03:51:46;13.10;99.90
25949;DHT22;13961;51.178;4.448;2022-10-31T03:57:14;13.00;99.90
25949;DHT22;13961;51.178;4.448;2022-10-31T03:59:49;13.00;99.90
25949;DHT22;13961;51.178;4.448;2022-10-31T04:02:20;12.80;99.90
25949;DHT22;13961;51.178;4.448;2022-10-31T04:04:48;12.90;99.90
25949;DHT22;13961;51.178;4.448;2022-10-31T04:07:15;12.80;99.90
25949;DHT22;13961;51.178;4.448;2022-10-31T04:09:43;12.90;99.90
25949;DHT22;13961;51.178;4.448;2022-10-31T04:12:14;12.70;99.90
25949;DHT22;13961;51.178;4.448;2022-10-31T04:14:42;12.70;99.90
25949;DHT22;13961;51.178;4.448;2022-10-31T04:17:12;12.60;99.90
25949;DHT22;13961;51.178;4.448;2022-10-31T04:19:40;12.50;99.90
25949;DHT22;13961;51.178;4.448;2022-10-31T04:22:06;12.40;99.90
25949;DHT22;13961;51.178;4.448;2022-10-31T04:24:32;12.70;99.90
25949;DHT22;13961;51.178;4.448;2022-10-31T04:26:58;12.40;99.90
25949;DHT22;13961;51.178;4.448;2022-10-31T04:29:23;12.30;99.90
25949;DHT22;13961;51.178;4.448;2022-10-31T04:31:50;12.40;99.90
25949;DHT22;13961;51.178;4.448;2022-10-31T04:34:16;12.30;99.90
25949;DHT22;13961;51.178;4.448;2022-10-31T04:36:41;12.30;99.90
25949;DHT22;13961;51.178;4.448;2022-10-31T04:39:07;12.30;99.90
25949;DHT22;13961;51.178;4.448;2022-10-31T04:41:32;12.30;99.90
25949;DHT22;13961;51.178;4.448;2022-10-31T04:43:58;12.10;99.90
25949;DHT22;13961;51.178;4.448;2022-10-31T04:46:25;12.30;99.90
25949;DHT22;13961;51.178;4.448;2022-10-31T04:48:50;12.20;99.90
25949;DHT22;13961;51.178;4.448;2022-10-31T04:51:16;12.10;99.90
25949;DHT22;13961;51.178;4.448;2022-10-31T04:53:41;12.00;99.90
25949;DHT22;13961;51.178;4.448;2022-10-31T04:56:07;12.00;99.90
25949;DHT22;13961;51.178;4.448;2022-10-31T04:58:32;12.10;99.90
25949;DHT22;13961;51.178;4.448;2022-10-31T05:00:58;12.30;99.90
25949;DHT22;13961;51.178;4.448;2022-10-31T05:03:24;12.00;99.90
25949;DHT22;13961;51.178;4.448;2022-10-31T05:05:49;12.10;99.90
25949;DHT22;13961;51.178;4.448;2022-10-31T05:08:15;12.00;99.90
25949;DHT22;13961;51.178;4.448;2022-10-31T05:10:41;11.70;99.90
25949;DHT22;13961;51.178;4.448;2022-10-31T05:13:06;11.80;99.90
25949;DHT22;13961;51.178;4.448;2022-10-31T05:15:32;12.00;99.90
25949;DHT22;13961;51.178;4.448;2022-10-31T05:17:58;11.90;99.90
25949;DHT22;13961;51.178;4.448;2022-10-31T05:20:26;11.90;99.90
25949;DHT22;13961;51.178;4.448;2022-10-31T05:22:54;11.80;99.90
25949;DHT22;13961;51.178;4.448;2022-10-31T05:25:22;11.80;99.90
25949;DHT22;13961;51.178;4.448;2022-10-31T05:27:50;11.80;99.90
25949;DHT22;13961;51.178;4.448;2022-10-31T05:30:21;11.90;99.90
25949;DHT22;13961;51.178;4.448;2022-10-31T05:32:49;12.10;99.90
25949;DHT22;13961;51.178;4.448;2022-10-31T05:35:30;12.30;99.90
25949;DHT22;13961;51.178;4.448;2022-10-31T05:37:56;12.00;99.90
25949;DHT22;13961;51.178;4.448;2022-10-31T05:40:23;12.00;99.90
25949;DHT22;13961;51.178;4.448;2022-10-31T05:42:52;12.10;99.90
25949;DHT22;13961;51.178;4.448;2022-10-31T05:45:18;12.10;99.90
25949;DHT22;13961;51.178;4.448;2022-10-31T05:47:55;12.10;99.90
25949;DHT22;13961;51.178;4.448;2022-10-31T05:50:21;12.00;99.90
25949;DHT22;13961;51.178;4.448;2022-10-31T05:52:47;11.90;99.90
25949;DHT22;13961;51.178;4.448;2022-10-31T05:55:18;12.20;99.90
25949;DHT22;13961;51.178;4.448;2022-10-31T05:57:45;12.00;99.90
25949;DHT22;13961;51.178;4.448;2022-10-31T06:00:11;12.20;99.90
25949;DHT22;13961;51.178;4.448;2022-10-31T06:02:37;12.10;99.90
25949;DHT22;13961;51.178;4.448;2022-10-31T06:05:03;12.00;99.90
25949;DHT22;13961;51.178;4.448;2022-10-31T06:07:33;12.20;99.90
25949;DHT22;13961;51.178;4.448;2022-10-31T06:09:59;12.30;99.90
25949;DHT22;13961;51.178;4.448;2022-10-31T06:12:25;12.50;99.90
25949;DHT22;13961;51.178;4.448;2022-10-31T06:14:52;12.50;99.90
25949;DHT22;13961;51.178;4.448;2022-10-31T06:17:17;12.50;99.90
25949;DHT22;13961;51.178;4.448;2022-10-31T06:19:43;12.50;99.90
25949;DHT22;13961;51.178;4.448;2022-10-31T06:22:08;12.70;99.90
25949;DHT22;13961;51.178;4.448;2022-10-31T06:24:39;12.50;99.90
25949;DHT22;13961;51.178;4.448;2022-10-31T06:27:05;12.60;99.90
25949;DHT22;13961;51.178;4.448;2022-10-31T06:29:31;12.60;99.90
25949;DHT22;13961;51.178;4.448;2022-10-31T06:32:00;12.60;99.90
25949;DHT22;13961;51.178;4.448;2022-10-31T06:34:26;12.60;99.90
25949;DHT22;13961;51.178;4.448;2022-10-31T06:36:52;12.50;99.90
25949;DHT22;13961;51.178;4.448;2022-10-31T06:39:17;12.50;99.90
25949;DHT22;13961;51.178;4.448;2022-10-31T06:41:47;12.60;99.90
25949;DHT22;13961;51.178;4.448;2022-10-31T06:44:13;12.50;99.90
25949;DHT22;13961;51.178;4.448;2022-10-31T06:46:40;12.50;99.90
25949;DHT22;13961;51.178;4.448;2022-10-31T06:49:07;12.50;99.90
25949;DHT22;13961;51.178;4.448;2022-10-31T06:51:32;12.60;99.90
25949;DHT22;13961;51.178;4.448;2022-10-31T06:53:58;12.80;99.90
25949;DHT22;13961;51.178;4.448;2022-10-31T06:56:25;12.70;99.90
25949;DHT22;13961;51.178;4.448;2022-10-31T06:58:51;12.70;99.90
25949;DHT22;13961;51.178;4.448;2022-10-31T07:01:16;12.80;99.90
25949;DHT22;13961;51.178;4.448;2022-10-31T07:03:42;12.80;99.90
25949;DHT22;13961;51.178;4.448;2022-10-31T07:06:07;12.80;99.90
25949;DHT22;13961;51.178;4.448;2022-10-31T07:08:33;12.90;99.90
25949;DHT22;13961;51.178;4.448;2022-10-31T07:10:59;12.90;99.90
25949;DHT22;13961;51.178;4.448;2022-10-31T07:13:24;12.90;99.90
25949;DHT22;13961;51.178;4.448;2022-10-31T07:15:52;12.90;99.90
25949;DHT22;13961;51.178;4.448;2022-10-31T07:18:19;12.90;99.90
25949;DHT22;13961;51.178;4.448;2022-10-31T07:20:45;13.00;99.90
25949;DHT22;13961;51.178;4.448;2022-10-31T07:23:11;13.10;99.90
25949;DHT22;13961;51.178;4.448;2022-10-31T07:25:37;13.20;99.90
25949;DHT22;13961;51.178;4.448;2022-10-31T07:28:03;13.40;99.90
25949;DHT22;13961;51.178;4.448;2022-10-31T07:30:32;13.30;99.90
25949;DHT22;13961;51.178;4.448;2022-10-31T07:32:57;13.40;99.90
25949;DHT22;13961;51.178;4.448;2022-10-31T07:35:26;13.40;99.90
25949;DHT22;13961;51.178;4.448;2022-10-31T07:37:52;13.50;99.90
25949;DHT22;13961;51.178;4.448;2022-10-31T07:40:18;13.50;99.90
25949;DHT22;13961;51.178;4.448;2022-10-31T07:42:46;13.70;99.90
25949;DHT22;13961;51.178;4.448;2022-10-31T07:45:15;13.80;99.90
25949;DHT22;13961;51.178;4.448;2022-10-31T07:47:43;13.70;99.90
25949;DHT22;13961;51.178;4.448;2022-10-31T07:50:11;13.70;99.90
25949;DHT22;13961;51.178;4.448;2022-10-31T07:52:37;13.70;99.90
25949;DHT22;13961;51.178;4.448;2022-10-31T07:55:03;13.60;99.90
25949;DHT22;13961;51.178;4.448;2022-10-31T07:57:29;13.60;99.90
25949;DHT22;13961;51.178;4.448;2022-10-31T07:59:55;13.60;99.90
25949;DHT22;13961;51.178;4.448;2022-10-31T08:02:20;13.60;99.90
25949;DHT22;13961;51.178;4.448;2022-10-31T08:04:46;13.50;99.90
25949;DHT22;13961;51.178;4.448;2022-10-31T08:07:12;13.30;99.90
25949;DHT22;13961;51.178;4.448;2022-10-31T08:09:37;13.40;99.90
25949;DHT22;13961;51.178;4.448;2022-10-31T08:12:04;13.60;99.90
25949;DHT22;13961;51.178;4.448;2022-10-31T08:14:31;13.70;99.90
25949;DHT22;13961;51.178;4.448;2022-10-31T08:16:57;13.80;99.90
25949;DHT22;13961;51.178;4.448;2022-10-31T08:19:22;13.70;99.90
25949;DHT22;13961;51.178;4.448;2022-10-31T08:21:52;13.70;99.90
25949;DHT22;13961;51.178;4.448;2022-10-31T08:24:20;13.80;99.90
25949;DHT22;13961;51.178;4.448;2022-10-31T08:26:46;14.10;99.90
25949;DHT22;13961;51.178;4.448;2022-10-31T08:29:12;14.10;99.90
25949;DHT22;13961;51.178;4.448;2022-10-31T08:31:38;14.30;99.90
25949;DHT22;13961;51.178;4.448;2022-10-31T08:34:04;14.20;99.90
25949;DHT22;13961;51.178;4.448;2022-10-31T08:36:29;14.30;99.90
25949;DHT22;13961;51.178;4.448;2022-10-31T08:38:55;14.50;99.90
25949;DHT22;13961;51.178;4.448;2022-10-31T08:41:21;14.50;99.90
25949;DHT22;13961;51.178;4.448;2022-10-31T08:43:47;14.60;99.90
25949;DHT22;13961;51.178;4.448;2022-10-31T08:46:13;14.60;99.90
25949;DHT22;13961;51.178;4.448;2022-10-31T08:48:39;14.70;99.90
25949;DHT22;13961;51.178;4.448;2022-10-31T08:51:05;14.70;99.90
25949;DHT22;13961;51.178;4.448;2022-10-31T08:53:31;14.80;99.90
25949;DHT22;13961;51.178;4.448;2022-10-31T08:55:56;14.90;99.90
25949;DHT22;13961;51.178;4.448;2022-10-31T08:58:23;14.90;99.90
25949;DHT22;13961;51.178;4.448;2022-10-31T09:00:51;14.90;99.90
25949;DHT22;13961;51.178;4.448;2022-10-31T09:03:26;14.90;99.90
25949;DHT22;13961;51.178;4.448;2022-10-31T09:05:58;14.90;99.90
25949;DHT22;13961;51.178;4.448;2022-10-31T09:08:24;15.00;99.90
25949;DHT22;13961;51.178;4.448;2022-10-31T09:10:51;14.90;99.90
25949;DHT22;13961;51.178;4.448;2022-10-31T09:13:18;14.90;99.90
25949;DHT22;13961;51.178;4.448;2022-10-31T09:15:46;14.90;99.90
25949;DHT22;13961;51.178;4.448;2022-10-31T09:18:14;15.00;99.90
25949;DHT22;13961;51.178;4.448;2022-10-31T09:20:42;15.00;99.90
25949;DHT22;13961;51.178;4.448;2022-10-31T09:23:12;15.10;99.90
25949;DHT22;13961;51.178;4.448;2022-10-31T09:25:39;15.00;99.90
25949;DHT22;13961;51.178;4.448;2022-10-31T09:28:08;14.90;99.90
25949;DHT22;13961;51.178;4.448;2022-10-31T09:30:35;14.90;99.90
25949;DHT22;13961;51.178;4.448;2022-10-31T09:33:06;14.70;99.90
25949;DHT22;13961;51.178;4.448;2022-10-31T09:35:32;14.80;99.90
25949;DHT22;13961;51.178;4.448;2022-10-31T09:38:05;14.70;99.90
25949;DHT22;13961;51.178;4.448;2022-10-31T09:41:08;14.80;99.90
25949;DHT22;13961;51.178;4.448;2022-10-31T09:44:05;14.90;99.90
25949;DHT22;13961;51.178;4.448;2022-10-31T09:46:56;15.20;99.90
25949;DHT22;13961;51.178;4.448;2022-10-31T09:52:21;15.40;99.90
25949;DHT22;13961;51.178;4.448;2022-10-31T09:54:58;15.50;99.90
25949;DHT22;13961;51.178;4.448;2022-10-31T09:57:36;15.50;99.90
25949;DHT22;13961;51.178;4.448;2022-10-31T10:00:06;15.50;99.90
25949;DHT22;13961;51.178;4.448;2022-10-31T10:02:59;15.50;99.90
25949;DHT22;13961;51.178;4.448;2022-10-31T10:05:43;15.60;99.90
25949;DHT22;13961;51.178;4.448;2022-10-31T10:08:20;15.60;99.90
25949;DHT22;13961;51.178;4.448;2022-10-31T10:13:45;15.50;99.90
25949;DHT22;13961;51.178;4.448;2022-10-31T10:22:02;15.90;99.90
25949;DHT22;13961;51.178;4.448;2022-10-31T10:27:49;15.60;99.90
25949;DHT22;13961;51.178;4.448;2022-10-31T10:30:19;15.60;99.90
25949;DHT22;13961;51.178;4.448;2022-10-31T10:32:58;15.90;99.90
25949;DHT22;13961;51.178;4.448;2022-10-31T10:35:30;16.00;99.90
25949;DHT22;13961;51.178;4.448;2022-10-31T10:38:15;16.00;99.90
25949;DHT22;13961;51.178;4.448;2022-10-31T10:40:42;16.10;99.90
25949;DHT22;13961;51.178;4.448;2022-10-31T10:52:25;15.80;99.90
25949;DHT22;13961;51.178;4.448;2022-10-31T10:58:12;16.20;99.90
25949;DHT22;13961;51.178;4.448;2022-10-31T11:00:41;15.90;99.90
25949;DHT22;13961;51.178;4.448;2022-10-31T11:03:07;15.80;99.90
25949;DHT22;13961;51.178;4.448;2022-10-31T11:08:30;16.10;99.90
25949;DHT22;13961;51.178;4.448;2022-10-31T11:11:01;16.30;99.90
25949;DHT22;13961;51.178;4.448;2022-10-31T11:13:28;16.20;99.90
25949;DHT22;13961;51.178;4.448;2022-10-31T11:18:31;16.10;99.90
25949;DHT22;13961;51.178;4.448;2022-10-31T11:21:00;16.00;99.90
25949;DHT22;13961;51.178;4.448;2022-10-31T11:23:28;16.20;99.90
25949;DHT22;13961;51.178;4.448;2022-10-31T11:28:21;15.90;99.90
25949;DHT22;13961;51.178;4.448;2022-10-31T11:33:24;16.40;99.90
25949;DHT22;13961;51.178;4.448;2022-10-31T11:35:52;16.40;99.90
25949;DHT22;13961;51.178;4.448;2022-10-31T11:38:20;16.40;99.90
25949;DHT22;13961;51.178;4.448;2022-10-31T11:41:05;16.20;99.90
25949;DHT22;13961;51.178;4.448;2022-10-31T11:43:32;16.30;99.90
25949;DHT22;13961;51.178;4.448;2022-10-31T11:45:58;16.20;99.90
25949;DHT22;13961;51.178;4.448;2022-10-31T11:48:25;16.00;99.90
25949;DHT22;13961;51.178;4.448;2022-10-31T11:50:54;16.20;99.90
25949;DHT22;13961;51.178;4.448;2022-10-31T11:53:30;16.10;99.90
25949;DHT22;13961;51.178;4.448;2022-10-31T11:56:04;16.30;99.90
25949;DHT22;13961;51.178;4.448;2022-10-31T11:58:30;16.60;99.90
25949;DHT22;13961;51.178;4.448;2022-10-31T12:00:57;16.70;99.90
25949;DHT22;13961;51.178;4.448;2022-10-31T12:03:27;16.80;99.90
25949;DHT22;13961;51.178;4.448;2022-10-31T12:06:07;17.00;99.90
25949;DHT22;13961;51.178;4.448;2022-10-31T12:08:36;17.10;99.90
25949;DHT22;13961;51.178;4.448;2022-10-31T12:16:30;17.20;99.90
25949;DHT22;13961;51.178;4.448;2022-10-31T12:25:10;16.70;99.90
25949;DHT22;13961;51.178;4.448;2022-10-31T12:36:43;17.20;99.90
25949;DHT22;13961;51.178;4.448;2022-10-31T12:39:29;17.20;99.90
25949;DHT22;13961;51.178;4.448;2022-10-31T12:48:22;17.30;99.90
25949;DHT22;13961;51.178;4.448;2022-10-31T12:56:57;17.60;99.90
25949;DHT22;13961;51.178;4.448;2022-10-31T12:59:48;17.70;99.90
25949;DHT22;13961;51.178;4.448;2022-10-31T13:02:26;17.80;99.90
25949;DHT22;13961;51.178;4.448;2022-10-31T13:05:03;17.90;99.90
25949;DHT22;13961;51.178;4.448;2022-10-31T13:08:14;17.80;99.90
25949;DHT22;13961;51.178;4.448;2022-10-31T13:10:46;17.70;99.90
25949;DHT22;13961;51.178;4.448;2022-10-31T13:13:29;17.90;99.90
25949;DHT22;13961;51.178;4.448;2022-10-31T13:16:19;18.40;99.90
25949;DHT22;13961;51.178;4.448;2022-10-31T13:21:33;18.20;99.90
25949;DHT22;13961;51.178;4.448;2022-10-31T13:24:04;18.10;99.90
25949;DHT22;13961;51.178;4.448;2022-10-31T13:31:27;18.30;99.90
25949;DHT22;13961;51.178;4.448;2022-10-31T13:33:58;18.50;99.90
25949;DHT22;13961;51.178;4.448;2022-10-31T13:43:06;18.80;99.90
25949;DHT22;13961;51.178;4.448;2022-10-31T13:45:23;18.70;99.90
25949;DHT22;13961;51.178;4.448;2022-10-31T13:50:43;18.80;99.90
25949;DHT22;13961;51.178;4.448;2022-10-31T13:53:36;18.70;99.90
25949;DHT22;13961;51.178;4.448;2022-10-31T13:56:13;18.60;99.90
25949;DHT22;13961;51.178;4.448;2022-10-31T14:01:21;18.70;99.90
25949;DHT22;13961;51.178;4.448;2022-10-31T14:09:48;19.00;99.90
25949;DHT22;13961;51.178;4.448;2022-10-31T14:12:34;18.90;99.90
25949;DHT22;13961;51.178;4.448;2022-10-31T14:15:22;18.70;99.90
25949;DHT22;13961;51.178;4.448;2022-10-31T14:17:58;18.70;99.90
25949;DHT22;13961;51.178;4.448;2022-10-31T14:20:32;18.70;99.90
25949;DHT22;13961;51.178;4.448;2022-10-31T14:22:58;18.70;99.90
25949;DHT22;13961;51.178;4.448;2022-10-31T14:25:34;18.70;99.90
25949;DHT22;13961;51.178;4.448;2022-10-31T14:28:03;18.60;99.90
25949;DHT22;13961;51.178;4.448;2022-10-31T14:30:51;18.60;99.90
25949;DHT22;13961;51.178;4.448;2022-10-31T14:33:19;18.50;99.90
25949;DHT22;13961;51.178;4.448;2022-10-31T14:36:17;18.60;99.90
25949;DHT22;13961;51.178;4.448;2022-10-31T14:38:56;18.80;99.90
25949;DHT22;13961;51.178;4.448;2022-10-31T14:41:37;18.60;99.90
25949;DHT22;13961;51.178;4.448;2022-10-31T14:47:31;18.60;99.90
25949;DHT22;13961;51.178;4.448;2022-10-31T14:50:20;18.50;99.90
25949;DHT22;13961;51.178;4.448;2022-10-31T14:52:50;18.40;99.90
25949;DHT22;13961;51.178;4.448;2022-10-31T14:55:18;18.50;99.90
25949;DHT22;13961;51.178;4.448;2022-10-31T14:58:06;18.40;99.90
25949;DHT22;13961;51.178;4.448;2022-10-31T15:00:33;18.40;99.90
25949;DHT22;13961;51.178;4.448;2022-10-31T15:03:15;18.40;99.90
25949;DHT22;13961;51.178;4.448;2022-10-31T15:05:50;18.40;99.90
25949;DHT22;13961;51.178;4.448;2022-10-31T15:08:38;18.30;99.90
25949;DHT22;13961;51.178;4.448;2022-10-31T15:11:25;18.30;99.90
25949;DHT22;13961;51.178;4.448;2022-10-31T15:13:54;18.30;99.90
25949;DHT22;13961;51.178;4.448;2022-10-31T15:19:00;18.30;99.90
25949;DHT22;13961;51.178;4.448;2022-10-31T15:21:28;18.30;99.90
25949;DHT22;13961;51.178;4.448;2022-10-31T15:23:59;18.20;99.90
25949;DHT22;13961;51.178;4.448;2022-10-31T15:26:37;18.20;99.90
25949;DHT22;13961;51.178;4.448;2022-10-31T15:29:12;18.30;99.90
25949;DHT22;13961;51.178;4.448;2022-10-31T15:31:38;18.30;99.90
25949;DHT22;13961;51.178;4.448;2022-10-31T15:34:12;18.10;99.90
25949;DHT22;13961;51.178;4.448;2022-10-31T15:36:41;18.20;99.90
25949;DHT22;13961;51.178;4.448;2022-10-31T15:39:11;18.40;99.90
25949;DHT22;13961;51.178;4.448;2022-10-31T15:41:56;18.30;99.90
25949;DHT22;13961;51.178;4.448;2022-10-31T15:44:28;18.10;99.90
25949;DHT22;13961;51.178;4.448;2022-10-31T15:47:06;18.00;99.90
25949;DHT22;13961;51.178;4.448;2022-10-31T15:49:46;17.80;99.90
25949;DHT22;13961;51.178;4.448;2022-10-31T15:52:25;17.80;99.90
25949;DHT22;13961;51.178;4.448;2022-10-31T15:54:57;17.90;99.90
25949;DHT22;13961;51.178;4.448;2022-10-31T15:57:25;17.80;99.90
25949;DHT22;13961;51.178;4.448;2022-10-31T15:59:54;17.60;99.90
25949;DHT22;13961;51.178;4.448;2022-10-31T16:02:25;17.40;99.90
25949;DHT22;13961;51.178;4.448;2022-10-31T16:04:59;17.40;99.90
25949;DHT22;13961;51.178;4.448;2022-10-31T16:07:31;17.50;99.90
25949;DHT22;13961;51.178;4.448;2022-10-31T16:10:02;17.40;99.90
25949;DHT22;13961;51.178;4.448;2022-10-31T16:12:44;17.40;99.90
25949;DHT22;13961;51.178;4.448;2022-10-31T16:15:16;17.60;99.90
25949;DHT22;13961;51.178;4.448;2022-10-31T16:17:45;17.50;99.90
25949;DHT22;13961;51.178;4.448;2022-10-31T16:20:37;17.40;99.90
25949;DHT22;13961;51.178;4.448;2022-10-31T16:23:04;17.30;99.90
25949;DHT22;13961;51.178;4.448;2022-10-31T16:25:35;17.20;99.90
25949;DHT22;13961;51.178;4.448;2022-10-31T16:28:05;17.00;99.90
25949;DHT22;13961;51.178;4.448;2022-10-31T16:30:40;16.90;99.90
25949;DHT22;13961;51.178;4.448;2022-10-31T16:33:33;16.90;99.90
25949;DHT22;13961;51.178;4.448;2022-10-31T16:38:54;16.90;99.90
25949;DHT22;13961;51.178;4.448;2022-10-31T16:41:20;17.10;99.90
25949;DHT22;13961;51.178;4.448;2022-10-31T16:43:45;17.10;99.90
25949;DHT22;13961;51.178;4.448;2022-10-31T16:46:20;16.80;99.90
25949;DHT22;13961;51.178;4.448;2022-10-31T16:48:48;16.70;99.90
25949;DHT22;13961;51.178;4.448;2022-10-31T16:51:13;16.50;99.90
25949;DHT22;13961;51.178;4.448;2022-10-31T16:53:39;16.60;99.90
25949;DHT22;13961;51.178;4.448;2022-10-31T16:56:16;16.50;99.90
25949;DHT22;13961;51.178;4.448;2022-10-31T16:58:42;16.50;99.90
25949;DHT22;13961;51.178;4.448;2022-10-31T17:01:08;16.50;99.90
25949;DHT22;13961;51.178;4.448;2022-10-31T17:03:34;16.70;99.90
25949;DHT22;13961;51.178;4.448;2022-10-31T17:06:00;16.60;99.90
25949;DHT22;13961;51.178;4.448;2022-10-31T17:08:26;16.50;99.90
25949;DHT22;13961;51.178;4.448;2022-10-31T17:10:53;16.40;99.90
25949;DHT22;13961;51.178;4.448;2022-10-31T17:13:22;16.30;99.90
25949;DHT22;13961;51.178;4.448;2022-10-31T17:15:50;16.20;99.90
25949;DHT22;13961;51.178;4.448;2022-10-31T17:18:20;16.10;99.90
25949;DHT22;13961;51.178;4.448;2022-10-31T17:20:46;16.00;99.90
25949;DHT22;13961;51.178;4.448;2022-10-31T17:23:15;16.00;99.90
25949;DHT22;13961;51.178;4.448;2022-10-31T17:25:41;16.10;99.90
25949;DHT22;13961;51.178;4.448;2022-10-31T17:28:10;16.10;99.90
25949;DHT22;13961;51.178;4.448;2022-10-31T17:30:37;16.00;99.90
25949;DHT22;13961;51.178;4.448;2022-10-31T17:33:03;16.00;99.90
25949;DHT22;13961;51.178;4.448;2022-10-31T17:35:29;16.10;99.90
25949;DHT22;13961;51.178;4.448;2022-10-31T17:37:55;16.10;99.90
25949;DHT22;13961;51.178;4.448;2022-10-31T17:40:22;16.20;99.90
25949;DHT22;13961;51.178;4.448;2022-10-31T17:42:49;16.40;99.90
25949;DHT22;13961;51.178;4.448;2022-10-31T17:45:15;16.30;99.90
25949;DHT22;13961;51.178;4.448;2022-10-31T17:47:41;16.30;99.90
25949;DHT22;13961;51.178;4.448;2022-10-31T17:50:07;16.30;99.90
25949;DHT22;13961;51.178;4.448;2022-10-31T17:52:32;16.30;99.90